<?xml version="1.0" encoding="utf-8"?>
<gpx xmlns:xsi="http://www.w3.org/2001/XMLSchema-instance" xmlns:xsd="http://www.w3.org/2001/XMLSchema" version="1.1" creator="Shapelink.com" xmlns="http://www.topografix.com/GPX/1/1" xmlns:gpxtpx="http://www.garmin.com/xmlschemas/TrackPointExtension/v1">
  <metadata>
    <name>Cykling 10.00 km, 2018-06-17</name>
    <desc></desc>
    <author><name>Marian Moron</name></author> 
    <time>2018-06-17T18:07:08Z</time>
  </metadata>
  <trk>
    <name>Cykling 10.00 km, 2018-06-17</name>
    <trkseg>
      <trkpt lat="51.180845067043" lon="4.603174021294">
        <ele>9.6</ele>
        <time>2018-06-17T18:07:08Z</time>
      </trkpt>
      <trkpt lat="51.181142959769" lon="4.602433061334">
        <ele>7.2</ele>
        <time>2018-06-17T18:07:24Z</time>
      </trkpt>
      <trkpt lat="51.181363403739" lon="4.601647425847">
        <ele>2.8</ele>
        <time>2018-06-17T18:07:41Z</time>
      </trkpt>
      <trkpt lat="51.18160471864" lon="4.600870256079">
        <ele>6</ele>
        <time>2018-06-17T18:07:59Z</time>
      </trkpt>
      <trkpt lat="51.181729776588" lon="4.600523413057">
        <ele>5</ele>
        <time>2018-06-17T18:08:06Z</time>
      </trkpt>
      <trkpt lat="51.181851733233" lon="4.599703160323">
        <ele>4.2</ele>
        <time>2018-06-17T18:08:18Z</time>
      </trkpt>
      <trkpt lat="51.181862713522" lon="4.599296721992">
        <ele>3.6</ele>
        <time>2018-06-17T18:08:24Z</time>
      </trkpt>
      <trkpt lat="51.181843938066" lon="4.598404720194">
        <ele>0</ele>
        <time>2018-06-17T18:08:38Z</time>
      </trkpt>
      <trkpt lat="51.181753245908" lon="4.597530907119">
        <ele>0</ele>
        <time>2018-06-17T18:08:52Z</time>
      </trkpt>
      <trkpt lat="51.181641012267" lon="4.596684083762">
        <ele>0</ele>
        <time>2018-06-17T18:09:08Z</time>
      </trkpt>
      <trkpt lat="51.181712258417" lon="4.595795937638">
        <ele>0</ele>
        <time>2018-06-17T18:09:25Z</time>
      </trkpt>
      <trkpt lat="51.181702367775" lon="4.595295957303">
        <ele>5.6</ele>
        <time>2018-06-17T18:09:54Z</time>
      </trkpt>
      <trkpt lat="51.181853158156" lon="4.594473273818">
        <ele>9.2</ele>
        <time>2018-06-17T18:10:12Z</time>
      </trkpt>
      <trkpt lat="51.182172592365" lon="4.593772798435">
        <ele>12.6</ele>
        <time>2018-06-17T18:10:29Z</time>
      </trkpt>
      <trkpt lat="51.182461013544" lon="4.593021612557">
        <ele>19.8</ele>
        <time>2018-06-17T18:10:48Z</time>
      </trkpt>
      <trkpt lat="51.182828811316" lon="4.592364136321">
        <ele>15.6</ele>
        <time>2018-06-17T18:11:03Z</time>
      </trkpt>
      <trkpt lat="51.183171044293" lon="4.591693500502">
        <ele>10.4</ele>
        <time>2018-06-17T18:11:17Z</time>
      </trkpt>
      <trkpt lat="51.183526017758" lon="4.591028312918">
        <ele>6.2</ele>
        <time>2018-06-17T18:11:30Z</time>
      </trkpt>
      <trkpt lat="51.183848720908" lon="4.590338650186">
        <ele>5.4</ele>
        <time>2018-06-17T18:11:43Z</time>
      </trkpt>
      <trkpt lat="51.184204197287" lon="4.589625769591">
        <ele>3</ele>
        <time>2018-06-17T18:11:58Z</time>
      </trkpt>
      <trkpt lat="51.184556991458" lon="4.588913224272">
        <ele>1.8</ele>
        <time>2018-06-17T18:12:13Z</time>
      </trkpt>
      <trkpt lat="51.184912467837" lon="4.588192464691">
        <ele>1</ele>
        <time>2018-06-17T18:12:28Z</time>
      </trkpt>
      <trkpt lat="51.185207678355" lon="4.587438428967">
        <ele>0.8</ele>
        <time>2018-06-17T18:12:43Z</time>
      </trkpt>
      <trkpt lat="51.18533047319" lon="4.586569980308">
        <ele>0.6</ele>
        <time>2018-06-17T18:12:58Z</time>
      </trkpt>
      <trkpt lat="51.185288228414" lon="4.585693149749">
        <ele>0</ele>
        <time>2018-06-17T18:13:12Z</time>
      </trkpt>
      <trkpt lat="51.185288647509" lon="4.584785892893">
        <ele>0</ele>
        <time>2018-06-17T18:13:26Z</time>
      </trkpt>
      <trkpt lat="51.185395349096" lon="4.583945104504">
        <ele>0</ele>
        <time>2018-06-17T18:13:40Z</time>
      </trkpt>
      <trkpt lat="51.185406413204" lon="4.583885006281">
        <ele>0</ele>
        <time>2018-06-17T18:13:41Z</time>
      </trkpt>
      <trkpt lat="51.185470283282" lon="4.583567583728">
        <ele>0</ele>
        <time>2018-06-17T18:13:46Z</time>
      </trkpt>
      <trkpt lat="51.185631551038" lon="4.582740793112">
        <ele>0</ele>
        <time>2018-06-17T18:13:59Z</time>
      </trkpt>
      <trkpt lat="51.185689805243" lon="4.582417335591">
        <ele>0</ele>
        <time>2018-06-17T18:14:04Z</time>
      </trkpt>
      <trkpt lat="51.185849899533" lon="4.581560034859">
        <ele>0</ele>
        <time>2018-06-17T18:14:17Z</time>
      </trkpt>
      <trkpt lat="51.186020890293" lon="4.580672894563">
        <ele>0</ele>
        <time>2018-06-17T18:14:30Z</time>
      </trkpt>
      <trkpt lat="51.186173524692" lon="4.579839649884">
        <ele>0</ele>
        <time>2018-06-17T18:14:42Z</time>
      </trkpt>
      <trkpt lat="51.186336468828" lon="4.578955443253">
        <ele>0</ele>
        <time>2018-06-17T18:14:55Z</time>
      </trkpt>
      <trkpt lat="51.186501843715" lon="4.578084480024">
        <ele>0</ele>
        <time>2018-06-17T18:15:09Z</time>
      </trkpt>
      <trkpt lat="51.186671661009" lon="4.577257857046">
        <ele>0</ele>
        <time>2018-06-17T18:15:22Z</time>
      </trkpt>
      <trkpt lat="51.186742907159" lon="4.576914031508">
        <ele>0</ele>
        <time>2018-06-17T18:15:27Z</time>
      </trkpt>
      <trkpt lat="51.186888752219" lon="4.576034434922">
        <ele>0</ele>
        <time>2018-06-17T18:15:40Z</time>
      </trkpt>
      <trkpt lat="51.187021018601" lon="4.575131704292">
        <ele>0</ele>
        <time>2018-06-17T18:15:53Z</time>
      </trkpt>
      <trkpt lat="51.18717113843" lon="4.574312541205">
        <ele>0.2</ele>
        <time>2018-06-17T18:16:05Z</time>
      </trkpt>
      <trkpt lat="51.187258142552" lon="4.57344627184">
        <ele>1</ele>
        <time>2018-06-17T18:16:17Z</time>
      </trkpt>
      <trkpt lat="51.187317318766" lon="4.572575057154">
        <ele>1.4</ele>
        <time>2018-06-17T18:16:30Z</time>
      </trkpt>
      <trkpt lat="51.187367526347" lon="4.571692023989">
        <ele>1.4</ele>
        <time>2018-06-17T18:16:44Z</time>
      </trkpt>
      <trkpt lat="51.1873915824" lon="4.571234875163">
        <ele>1.8</ele>
        <time>2018-06-17T18:16:51Z</time>
      </trkpt>
      <trkpt lat="51.187448160225" lon="4.570363157563">
        <ele>2</ele>
        <time>2018-06-17T18:17:05Z</time>
      </trkpt>
      <trkpt lat="51.187516640348" lon="4.569502923166">
        <ele>2</ele>
        <time>2018-06-17T18:17:18Z</time>
      </trkpt>
      <trkpt lat="51.187567434662" lon="4.568635145059">
        <ele>2.4</ele>
        <time>2018-06-17T18:17:33Z</time>
      </trkpt>
      <trkpt lat="51.187588054136" lon="4.568132314878">
        <ele>2.6</ele>
        <time>2018-06-17T18:17:41Z</time>
      </trkpt>
      <trkpt lat="51.187605153212" lon="4.56799887503">
        <ele>2.6</ele>
        <time>2018-06-17T18:17:43Z</time>
      </trkpt>
      <trkpt lat="51.187613618931" lon="4.567866860105">
        <ele>2.4</ele>
        <time>2018-06-17T18:17:45Z</time>
      </trkpt>
      <trkpt lat="51.187661647218" lon="4.566996148333">
        <ele>2.6</ele>
        <time>2018-06-17T18:18:00Z</time>
      </trkpt>
      <trkpt lat="51.187710346057" lon="4.5660819345">
        <ele>2.2</ele>
        <time>2018-06-17T18:18:14Z</time>
      </trkpt>
      <trkpt lat="51.187776479248" lon="4.565213988755">
        <ele>0</ele>
        <time>2018-06-17T18:18:29Z</time>
      </trkpt>
      <trkpt lat="51.187809503934" lon="4.564855243435">
        <ele>0.4</ele>
        <time>2018-06-17T18:18:35Z</time>
      </trkpt>
      <trkpt lat="51.187919977376" lon="4.563987130052">
        <ele>0.4</ele>
        <time>2018-06-17T18:18:52Z</time>
      </trkpt>
      <trkpt lat="51.187985272377" lon="4.563140809609">
        <ele>2</ele>
        <time>2018-06-17T18:19:09Z</time>
      </trkpt>
      <trkpt lat="51.188139080242" lon="4.562297841926">
        <ele>0</ele>
        <time>2018-06-17T18:19:25Z</time>
      </trkpt>
      <trkpt lat="51.188230694409" lon="4.561405504852">
        <ele>0</ele>
        <time>2018-06-17T18:19:42Z</time>
      </trkpt>
      <trkpt lat="51.18838651393" lon="4.560557759486">
        <ele>0</ele>
        <time>2018-06-17T18:19:57Z</time>
      </trkpt>
      <trkpt lat="51.188567982065" lon="4.559682521488">
        <ele>0</ele>
        <time>2018-06-17T18:20:11Z</time>
      </trkpt>
      <trkpt lat="51.188791443519" lon="4.558837290692">
        <ele>0</ele>
        <time>2018-06-17T18:20:24Z</time>
      </trkpt>
      <trkpt lat="51.189067459486" lon="4.558076297991">
        <ele>0</ele>
        <time>2018-06-17T18:20:37Z</time>
      </trkpt>
      <trkpt lat="51.189113811393" lon="4.557971188965">
        <ele>0</ele>
        <time>2018-06-17T18:20:39Z</time>
      </trkpt>
      <trkpt lat="51.189447243375" lon="4.557259649474">
        <ele>0.2</ele>
        <time>2018-06-17T18:20:55Z</time>
      </trkpt>
      <trkpt lat="51.18980892236" lon="4.5565936237">
        <ele>1</ele>
        <time>2018-06-17T18:21:10Z</time>
      </trkpt>
      <trkpt lat="51.190162889997" lon="4.555911085583">
        <ele>1</ele>
        <time>2018-06-17T18:21:24Z</time>
      </trkpt>
      <trkpt lat="51.190526999733" lon="4.555223434507">
        <ele>2.2</ele>
        <time>2018-06-17T18:21:38Z</time>
      </trkpt>
      <trkpt lat="51.190890690374" lon="4.554547434272">
        <ele>3.2</ele>
        <time>2018-06-17T18:21:52Z</time>
      </trkpt>
      <trkpt lat="51.191313389591" lon="4.554008310464">
        <ele>2.2</ele>
        <time>2018-06-17T18:22:06Z</time>
      </trkpt>
      <trkpt lat="51.191780429059" lon="4.553561387556">
        <ele>1</ele>
        <time>2018-06-17T18:22:20Z</time>
      </trkpt>
      <trkpt lat="51.192266243983" lon="4.553108764956">
        <ele>0.8</ele>
        <time>2018-06-17T18:22:36Z</time>
      </trkpt>
      <trkpt lat="51.192753064735" lon="4.552656729089">
        <ele>0.2</ele>
        <time>2018-06-17T18:22:50Z</time>
      </trkpt>
      <trkpt lat="51.193247848292" lon="4.55219396439">
        <ele>0.4</ele>
        <time>2018-06-17T18:23:05Z</time>
      </trkpt>
      <trkpt lat="51.19366459636" lon="4.551600777327">
        <ele>0</ele>
        <time>2018-06-17T18:23:19Z</time>
      </trkpt>
      <trkpt lat="51.19394036087" lon="4.550845568137">
        <ele>0</ele>
        <time>2018-06-17T18:23:32Z</time>
      </trkpt>
      <trkpt lat="51.194091402708" lon="4.550015676218">
        <ele>0.4</ele>
        <time>2018-06-17T18:23:45Z</time>
      </trkpt>
      <trkpt lat="51.194162313582" lon="4.549117471814">
        <ele>1</ele>
        <time>2018-06-17T18:23:58Z</time>
      </trkpt>
      <trkpt lat="51.194124595032" lon="4.548213064804">
        <ele>0.2</ele>
        <time>2018-06-17T18:24:12Z</time>
      </trkpt>
      <trkpt lat="51.194086792663" lon="4.547874855139">
        <ele>0</ele>
        <time>2018-06-17T18:24:17Z</time>
      </trkpt>
      <trkpt lat="51.194050666674" lon="4.547621470302">
        <ele>0.2</ele>
        <time>2018-06-17T18:24:21Z</time>
      </trkpt>
      <trkpt lat="51.193880430285" lon="4.546756542041">
        <ele>0.2</ele>
        <time>2018-06-17T18:24:34Z</time>
      </trkpt>
      <trkpt lat="51.19380625047" lon="4.545844172226">
        <ele>0</ele>
        <time>2018-06-17T18:24:48Z</time>
      </trkpt>
      <trkpt lat="51.193782697331" lon="4.54497295754">
        <ele>0</ele>
        <time>2018-06-17T18:25:01Z</time>
      </trkpt>
      <trkpt lat="51.193774231612" lon="4.544896011698">
        <ele>0</ele>
        <time>2018-06-17T18:25:02Z</time>
      </trkpt>
      <trkpt lat="51.19372746061" lon="4.544021276614">
        <ele>0</ele>
        <time>2018-06-17T18:25:14Z</time>
      </trkpt>
      <trkpt lat="51.193714217208" lon="4.543396741245">
        <ele>0</ele>
        <time>2018-06-17T18:25:23Z</time>
      </trkpt>
      <trkpt lat="51.193711115905" lon="4.543258775171">
        <ele>0</ele>
        <time>2018-06-17T18:25:25Z</time>
      </trkpt>
      <trkpt lat="51.193713965751" lon="4.542352188867">
        <ele>0</ele>
        <time>2018-06-17T18:25:39Z</time>
      </trkpt>
      <trkpt lat="51.193749002093" lon="4.54145926506">
        <ele>0</ele>
        <time>2018-06-17T18:25:53Z</time>
      </trkpt>
      <trkpt lat="51.19388671671" lon="4.540571957126">
        <ele>0</ele>
        <time>2018-06-17T18:26:07Z</time>
      </trkpt>
      <trkpt lat="51.194142699936" lon="4.539787578924">
        <ele>0</ele>
        <time>2018-06-17T18:26:23Z</time>
      </trkpt>
      <trkpt lat="51.194617450752" lon="4.538915106953">
        <ele>1.2</ele>
        <time>2018-06-17T18:26:43Z</time>
      </trkpt>
      <trkpt lat="51.19500402398" lon="4.538240950736">
        <ele>1.6</ele>
        <time>2018-06-17T18:26:59Z</time>
      </trkpt>
      <trkpt lat="51.195176104387" lon="4.537930066065">
        <ele>0.8</ele>
        <time>2018-06-17T18:27:06Z</time>
      </trkpt>
      <trkpt lat="51.195525713436" lon="4.537216263461">
        <ele>2.4</ele>
        <time>2018-06-17T18:27:19Z</time>
      </trkpt>
      <trkpt lat="51.195849087138" lon="4.536456863321">
        <ele>3</ele>
        <time>2018-06-17T18:27:33Z</time>
      </trkpt>
      <trkpt lat="51.196150584081" lon="4.535686566711">
        <ele>1.8</ele>
        <time>2018-06-17T18:27:46Z</time>
      </trkpt>
      <trkpt lat="51.196418637243" lon="4.534883077777">
        <ele>1.8</ele>
        <time>2018-06-17T18:27:59Z</time>
      </trkpt>
      <trkpt lat="51.196636734281" lon="4.534086713458">
        <ele>2</ele>
        <time>2018-06-17T18:28:12Z</time>
      </trkpt>
      <trkpt lat="51.196830859085" lon="4.533268640018">
        <ele>2.4</ele>
        <time>2018-06-17T18:28:26Z</time>
      </trkpt>
      <trkpt lat="51.196998832361" lon="4.532413183304">
        <ele>2.4</ele>
        <time>2018-06-17T18:28:39Z</time>
      </trkpt>
      <trkpt lat="51.197147611086" lon="4.531524869542">
        <ele>1.8</ele>
        <time>2018-06-17T18:28:51Z</time>
      </trkpt>
      <trkpt lat="51.197304939349" lon="4.530695983451">
        <ele>1.4</ele>
        <time>2018-06-17T18:29:03Z</time>
      </trkpt>
      <trkpt lat="51.197344669555" lon="4.530485597761">
        <ele>1</ele>
        <time>2018-06-17T18:29:06Z</time>
      </trkpt>
      <trkpt lat="51.197468973132" lon="4.529638774404">
        <ele>1</ele>
        <time>2018-06-17T18:29:20Z</time>
      </trkpt>
      <trkpt lat="51.197618673866" lon="4.528786754269">
        <ele>0</ele>
        <time>2018-06-17T18:29:36Z</time>
      </trkpt>
      <trkpt lat="51.197786144228" lon="4.52793087846">
        <ele>0</ele>
        <time>2018-06-17T18:29:50Z</time>
      </trkpt>
      <trkpt lat="51.197929474718" lon="4.527102998197">
        <ele>0</ele>
        <time>2018-06-17T18:30:02Z</time>
      </trkpt>
      <trkpt lat="51.198035002839" lon="4.526247541483">
        <ele>0</ele>
        <time>2018-06-17T18:30:15Z</time>
      </trkpt>
      <trkpt lat="51.198062830747" lon="4.525776394884">
        <ele>0</ele>
        <time>2018-06-17T18:30:22Z</time>
      </trkpt>
      <trkpt lat="51.198083785497" lon="4.524868886571">
        <ele>1.8</ele>
        <time>2018-06-17T18:30:36Z</time>
      </trkpt>
      <trkpt lat="51.198088144085" lon="4.523972442366">
        <ele>0</ele>
        <time>2018-06-17T18:30:51Z</time>
      </trkpt>
      <trkpt lat="51.198151930344" lon="4.523121679516">
        <ele>0</ele>
        <time>2018-06-17T18:31:07Z</time>
      </trkpt>
      <trkpt lat="51.198045144938" lon="4.522503346753">
        <ele>4.6</ele>
        <time>2018-06-17T18:31:17Z</time>
      </trkpt>
      <trkpt lat="51.198005330913" lon="4.52175928549">
        <ele>3.6</ele>
        <time>2018-06-17T18:31:28Z</time>
      </trkpt>
      <trkpt lat="51.198013209899" lon="4.521611177317">
        <ele>3.6</ele>
        <time>2018-06-17T18:31:30Z</time>
      </trkpt>
      <trkpt lat="51.198001726696" lon="4.521464410248">
        <ele>4</ele>
        <time>2018-06-17T18:31:32Z</time>
      </trkpt>
      <trkpt lat="51.197841548587" lon="4.52057576121">
        <ele>7.2</ele>
        <time>2018-06-17T18:31:45Z</time>
      </trkpt>
      <trkpt lat="51.197692769862" lon="4.519734469907">
        <ele>6</ele>
        <time>2018-06-17T18:31:58Z</time>
      </trkpt>
      <trkpt lat="51.197483976733" lon="4.51886836818">
        <ele>10.2</ele>
        <time>2018-06-17T18:32:11Z</time>
      </trkpt>
      <trkpt lat="51.197363612649" lon="4.518015006941">
        <ele>7.6</ele>
        <time>2018-06-17T18:32:26Z</time>
      </trkpt>
      <trkpt lat="51.197226400946" lon="4.517163405901">
        <ele>4.6</ele>
        <time>2018-06-17T18:32:43Z</time>
      </trkpt>
      <trkpt lat="51.197080723524" lon="4.516287832627">
        <ele>11.6</ele>
        <time>2018-06-17T18:33:00Z</time>
      </trkpt>
      <trkpt lat="51.197021295853" lon="4.515723060205">
        <ele>11</ele>
        <time>2018-06-17T18:33:16Z</time>
      </trkpt>
      <trkpt lat="51.197021798767" lon="4.515653238978">
        <ele>11.8</ele>
        <time>2018-06-17T18:33:25Z</time>
      </trkpt>
      <trkpt lat="51.196914845723" lon="4.51476207537">
        <ele>10.6</ele>
        <time>2018-06-17T18:33:45Z</time>
      </trkpt>
      <trkpt lat="51.196846700876" lon="4.513865798803">
        <ele>8.4</ele>
        <time>2018-06-17T18:33:58Z</time>
      </trkpt>
      <trkpt lat="51.196758774745" lon="4.512980502525">
        <ele>6.8</ele>
        <time>2018-06-17T18:34:09Z</time>
      </trkpt>
      <trkpt lat="51.196655845013" lon="4.512117669739">
        <ele>5.4</ele>
        <time>2018-06-17T18:34:20Z</time>
      </trkpt>
      <trkpt lat="51.196628352381" lon="4.511769485613">
        <ele>3.6</ele>
        <time>2018-06-17T18:34:25Z</time>
      </trkpt>
      <trkpt lat="51.196575546411" lon="4.511575193171">
        <ele>2.8</ele>
        <time>2018-06-17T18:34:28Z</time>
      </trkpt>
      <trkpt lat="51.196513436532" lon="4.511039254485">
        <ele>1.8</ele>
        <time>2018-06-17T18:34:35Z</time>
      </trkpt>
      <trkpt lat="51.196488039375" lon="4.510121939349">
        <ele>2.8</ele>
        <time>2018-06-17T18:34:48Z</time>
      </trkpt>
      <trkpt lat="51.196429114618" lon="4.509234547596">
        <ele>5.8</ele>
        <time>2018-06-17T18:35:01Z</time>
      </trkpt>
      <trkpt lat="51.19638284653" lon="4.508341791427">
        <ele>1.8</ele>
        <time>2018-06-17T18:35:16Z</time>
      </trkpt>
      <trkpt lat="51.196279330065" lon="4.50767601711">
        <ele>0.6</ele>
        <time>2018-06-17T18:35:27Z</time>
      </trkpt>
      <trkpt lat="51.196245215732" lon="4.507541236158">
        <ele>0.4</ele>
        <time>2018-06-17T18:35:29Z</time>
      </trkpt>
      <trkpt lat="51.19616994627" lon="4.506661723391">
        <ele>3.6</ele>
        <time>2018-06-17T18:35:42Z</time>
      </trkpt>
      <trkpt lat="51.196172209383" lon="4.506593830001">
        <ele>2.4</ele>
        <time>2018-06-17T18:35:43Z</time>
      </trkpt>
      <trkpt lat="51.19611127297" lon="4.505719430193">
        <ele>3</ele>
        <time>2018-06-17T18:35:56Z</time>
      </trkpt>
      <trkpt lat="51.19603080673" lon="4.504825249101">
        <ele>4.4</ele>
        <time>2018-06-17T18:36:10Z</time>
      </trkpt>
      <trkpt lat="51.195953777069" lon="4.503929810724">
        <ele>6.2</ele>
        <time>2018-06-17T18:36:24Z</time>
      </trkpt>
      <trkpt lat="51.195907006067" lon="4.503466710749">
        <ele>5.8</ele>
        <time>2018-06-17T18:36:31Z</time>
      </trkpt>
      <trkpt lat="51.195879764892" lon="4.503344754104">
        <ele>5.8</ele>
        <time>2018-06-17T18:36:33Z</time>
      </trkpt>
      <trkpt lat="51.19584724312" lon="4.503219696156">
        <ele>5.8</ele>
        <time>2018-06-17T18:36:35Z</time>
      </trkpt>
      <trkpt lat="51.195779014454" lon="4.502345044891">
        <ele>5.2</ele>
        <time>2018-06-17T18:36:51Z</time>
      </trkpt>
      <trkpt lat="51.195806926181" lon="4.501481625372">
        <ele>5.2</ele>
        <time>2018-06-17T18:37:06Z</time>
      </trkpt>
      <trkpt lat="51.195917734899" lon="4.500607477021">
        <ele>3.2</ele>
        <time>2018-06-17T18:37:20Z</time>
      </trkpt>
      <trkpt lat="51.196053940774" lon="4.499746823529">
        <ele>1.2</ele>
        <time>2018-06-17T18:37:33Z</time>
      </trkpt>
      <trkpt lat="51.196214202702" lon="4.498911734832">
        <ele>0</ele>
        <time>2018-06-17T18:37:45Z</time>
      </trkpt>
      <trkpt lat="51.196433640844" lon="4.498125344974">
        <ele>0</ele>
        <time>2018-06-17T18:37:58Z</time>
      </trkpt>
      <trkpt lat="51.196673363184" lon="4.49734783993">
        <ele>0.2</ele>
        <time>2018-06-17T18:38:11Z</time>
      </trkpt>
      <trkpt lat="51.196894729163" lon="4.496564719013">
        <ele>0</ele>
        <time>2018-06-17T18:38:27Z</time>
      </trkpt>
      <trkpt lat="51.197084914474" lon="4.496105893807">
        <ele>0.4</ele>
        <time>2018-06-17T18:38:36Z</time>
      </trkpt>
      <trkpt lat="51.19722103653" lon="4.49593213702">
        <ele>0</ele>
        <time>2018-06-17T18:38:40Z</time>
      </trkpt>
      <trkpt lat="51.197581374411" lon="4.495224034108">
        <ele>0</ele>
        <time>2018-06-17T18:38:53Z</time>
      </trkpt>
      <trkpt lat="51.197899886611" lon="4.494464550149">
        <ele>0</ele>
        <time>2018-06-17T18:39:08Z</time>
      </trkpt>
      <trkpt lat="51.198228792367" lon="4.493706574932">
        <ele>0</ele>
        <time>2018-06-17T18:39:21Z</time>
      </trkpt>
      <trkpt lat="51.198555099734" lon="4.492967878085">
        <ele>0</ele>
        <time>2018-06-17T18:39:34Z</time>
      </trkpt>
      <trkpt lat="51.198877719065" lon="4.492234629473">
        <ele>0</ele>
        <time>2018-06-17T18:39:47Z</time>
      </trkpt>
      <trkpt lat="51.199155914326" lon="4.491490065296">
        <ele>0.2</ele>
        <time>2018-06-17T18:40:01Z</time>
      </trkpt>
      <trkpt lat="51.199271165451" lon="4.491172642743">
        <ele>0</ele>
        <time>2018-06-17T18:40:07Z</time>
      </trkpt>
      <trkpt lat="51.199636532472" lon="4.490474262835">
        <ele>0</ele>
        <time>2018-06-17T18:40:22Z</time>
      </trkpt>
      <trkpt lat="51.199999804018" lon="4.489788120501">
        <ele>0</ele>
        <time>2018-06-17T18:40:36Z</time>
      </trkpt>
      <trkpt lat="51.200113294944" lon="4.489596845543">
        <ele>0</ele>
        <time>2018-06-17T18:40:40Z</time>
      </trkpt>
      <trkpt lat="51.200253188855" lon="4.489402469282">
        <ele>0</ele>
        <time>2018-06-17T18:40:44Z</time>
      </trkpt>
      <trkpt lat="51.200609503424" lon="4.488697886768">
        <ele>0</ele>
        <time>2018-06-17T18:40:58Z</time>
      </trkpt>
      <trkpt lat="51.200967578192" lon="4.488015683927">
        <ele>0</ele>
        <time>2018-06-17T18:41:12Z</time>
      </trkpt>
      <trkpt lat="51.20116974962" lon="4.487655681322">
        <ele>0</ele>
        <time>2018-06-17T18:41:19Z</time>
      </trkpt>
      <trkpt lat="51.201544923464" lon="4.48697523868">
        <ele>0</ele>
        <time>2018-06-17T18:41:33Z</time>
      </trkpt>
      <trkpt lat="51.201912302141" lon="4.48627535003">
        <ele>0.2</ele>
        <time>2018-06-17T18:41:47Z</time>
      </trkpt>
      <trkpt lat="51.202006682335" lon="4.486129002056">
        <ele>0.2</ele>
        <time>2018-06-17T18:41:50Z</time>
      </trkpt>
      <trkpt lat="51.202435835615" lon="4.485602451098">
        <ele>0</ele>
        <time>2018-06-17T18:42:03Z</time>
      </trkpt>
      <trkpt lat="51.202531389275" lon="4.485558529942">
        <ele>0</ele>
        <time>2018-06-17T18:42:13Z</time>
      </trkpt>
      <trkpt lat="51.20288887731" lon="4.484874315445">
        <ele>0.6</ele>
        <time>2018-06-17T18:42:30Z</time>
      </trkpt>
      <trkpt lat="51.203348959801" lon="4.484377268775">
        <ele>0</ele>
        <time>2018-06-17T18:42:44Z</time>
      </trkpt>
      <trkpt lat="51.203806108627" lon="4.483893297869">
        <ele>0</ele>
        <time>2018-06-17T18:42:57Z</time>
      </trkpt>
      <trkpt lat="51.204257473942" lon="4.48337940358">
        <ele>0</ele>
        <time>2018-06-17T18:43:11Z</time>
      </trkpt>
      <trkpt lat="51.204715377139" lon="4.482839106306">
        <ele>0</ele>
        <time>2018-06-17T18:43:26Z</time>
      </trkpt>
      <trkpt lat="51.205171939232" lon="4.482358991074">
        <ele>0</ele>
        <time>2018-06-17T18:43:41Z</time>
      </trkpt>
      <trkpt lat="51.205627663135" lon="4.48180444457">
        <ele>0</ele>
        <time>2018-06-17T18:43:55Z</time>
      </trkpt>
      <trkpt lat="51.206063857211" lon="4.481281162553">
        <ele>0</ele>
        <time>2018-06-17T18:44:06Z</time>
      </trkpt>
      <trkpt lat="51.206519413476" lon="4.480750253007">
        <ele>0</ele>
        <time>2018-06-17T18:44:21Z</time>
      </trkpt>
      <trkpt lat="51.206971449343" lon="4.48025295488">
        <ele>0</ele>
        <time>2018-06-17T18:44:34Z</time>
      </trkpt>
      <trkpt lat="51.207415857681" lon="4.479718441117">
        <ele>0</ele>
        <time>2018-06-17T18:44:47Z</time>
      </trkpt>
      <trkpt lat="51.207850291558" lon="4.479144448605">
        <ele>0</ele>
        <time>2018-06-17T18:45:02Z</time>
      </trkpt>
      <trkpt lat="51.208185735196" lon="4.478443805584">
        <ele>0</ele>
        <time>2018-06-17T18:45:17Z</time>
      </trkpt>
      <trkpt lat="51.208223202289" lon="4.478331739581">
        <ele>0</ele>
        <time>2018-06-17T18:45:19Z</time>
      </trkpt>
    </trkseg>
  </trk>
</gpx>